Quenames — WTU9038 — position and weather

sailwx.info

Track history (hours):
 
Tides and Currents Weather Stations Pressure Air Temp Water Temp Dewpoint Dewpoint Depression Visibility Wind Speed Wind Dir Waves Ship Positions

Quenames

Owner: BOSTON MARINE TRANSPORT INC, EAST BOSTON, MA. More information available from US FCC via Universal Licensing System and Coast Guard Vessel Documentation Center.

Last reported at 2016-Aug-30 17:28 UTC. Time now 2016-Aug-30 22:36 UTC.
Position N 40°37' W 074°12'.

Length 23 m; draft 3 m.

Type: Tug. MMSI: 367022790.

Date/timePositionNaut miles runAvg speedWind from/ knotsBaromVisibWave heightAir tempDewpointWater temp
2016-Aug-30 17:28N 40°37' W 074°12'5 5.3
2016-Aug-30 16:33N 40°39' W 074°06'4 4.3
2016-Aug-30 15:33N 40°36' W 074°02'6 5.8
2016-Aug-30 14:29N 40°34' W 073°54'7 0.5
2016-Aug-30 00:31N 40°37' W 073°46'5 4.9
2016-Aug-29 23:29N 40°35' W 073°52'6 5.9
2016-Aug-29 22:27N 40°34' W 074°00'5 5.1
2016-Aug-29 21:33N 40°38' W 074°03'6 5.7
2016-Aug-29 20:33N 40°39' W 074°11'7 0.8
2016-Aug-29 12:05N 40°33' W 074°15'0 0.0
2016-Aug-29 11:33N 40°33' W 074°15'0 0.0
2016-Aug-29 10:25N 40°33' W 074°15'0 0.0
2016-Aug-29 09:18N 40°33' W 074°15'0 0.0
2016-Aug-29 08:28N 40°33' W 074°15'0 0.0
2016-Aug-29 07:33N 40°33' W 074°15'5 4.3
2016-Aug-29 06:25N 40°37' W 074°12'7 7.6
2016-Aug-29 05:33N 40°39' W 074°04'30 1.5
2016-Aug-28 09:33N 40°56' W 073°32'7 5.1
2016-Aug-28 08:13N 40°54' W 073°41'6 5.3
2016-Aug-28 07:08N 40°50' W 073°46'3 4.7
2016-Aug-28 06:33N 40°48' W 073°49'6 5.6
2016-Aug-28 05:31N 40°47' W 073°56'5 5.2
2016-Aug-28 04:33N 40°42' W 073°60'3 3.5
2016-Aug-28 03:33N 40°40' W 074°03'3 3.4
2016-Aug-28 02:33N 40°39' W 074°07'2 0.1
2016-Aug-27 11:33N 40°39' W 074°10'3 3.4
2016-Aug-27 10:33N 40°39' W 074°05'0 0.0
2016-Aug-27 09:33N 40°39' W 074°05'0 0.0
2016-Aug-27 08:33N 40°39' W 074°05'0 0.0
2016-Aug-27 07:33N 40°39' W 074°05'0 0.0
2016-Aug-27 06:33N 40°39' W 074°05'0 0.0
2016-Aug-27 04:33N 40°39' W 074°05'0 0.0
2016-Aug-27 03:33N 40°39' W 074°05'0 0.0
2016-Aug-27 02:33N 40°39' W 074°05'0 0.0
2016-Aug-27 01:33N 40°39' W 074°05'0 0.0
2016-Aug-27 00:33N 40°39' W 074°05'0 0.0
2016-Aug-26 23:33N 40°39' W 074°05'0 0.0
2016-Aug-26 22:33N 40°39' W 074°05'0 0.0
2016-Aug-26 21:33N 40°39' W 074°05'0 0.0
2016-Aug-26 20:33N 40°39' W 074°05'0 0.0
2016-Aug-26 19:33N 40°39' W 074°05'0 0.1
2016-Aug-26 18:33N 40°39' W 074°05'2 2.5
2016-Aug-26 17:33N 40°39' W 074°08'3 2.7
2016-Aug-26 16:33N 40°38' W 074°12'2 1.7
2016-Aug-26 15:30N 40°39' W 074°09'3 3.6
2016-Aug-26 14:33N 40°39' W 074°05'3 3.0
2016-Aug-26 13:33N 40°39' W 074°09'3 0.2
2016-Aug-25 21:32N 40°38' W 074°12'6 5.9
2016-Aug-25 20:33N 40°39' W 074°05'7 6.6
2016-Aug-25 19:33N 40°44' W 073°58'7 4.6
2016-Aug-25 18:06N 40°48' W 073°52'6 0.2
2016-Aug-24 14:33N 40°44' W 073°58'7 6.9
2016-Aug-24 13:33N 40°39' W 074°05'5 0.4
2016-Aug-24 00:33N 40°38' W 074°12'4 4.1
2016-Aug-23 23:33N 40°39' W 074°06'3 1.1
2016-Aug-23 21:11N 40°39' W 074°10'1 0.4
2016-Aug-23 18:29N 40°38' W 074°11'4 4.1
2016-Aug-23 17:33N 40°39' W 074°06'0 0.0
2016-Aug-23 16:33N 40°39' W 074°06'0 0.0
2016-Aug-23 15:33N 40°39' W 074°06'0 0.0
2016-Aug-23 14:33N 40°39' W 074°06'0 0.0
2016-Aug-23 13:33N 40°39' W 074°06'0 0.0
2016-Aug-23 12:33N 40°39' W 074°06'0 0.0
2016-Aug-23 11:33N 40°39' W 074°06'2 2.2
2016-Aug-23 10:33N 40°41' W 074°08'1 1.0
2016-Aug-23 09:33N 40°41' W 074°09'0 0.0
2016-Aug-23 08:33N 40°41' W 074°09'0 0.0
2016-Aug-23 07:33N 40°41' W 074°09'0 0.0
2016-Aug-23 06:33N 40°41' W 074°09'0 0.0
2016-Aug-23 05:33N 40°41' W 074°09'0 0.0
2016-Aug-23 04:33N 40°41' W 074°09'0 0.0
2016-Aug-23 03:33N 40°41' W 074°09'0 0.0
2016-Aug-23 02:33N 40°41' W 074°09'4 0.2
2016-Aug-22 08:30N 40°37' W 074°12'6 6.5
2016-Aug-22 07:33N 40°39' W 074°05'6 6.0
2016-Aug-22 06:33N 40°43' W 073°58'128 5.5
2016-Aug-21 07:30N 41°29' W 071°21'0 0.1
2016-Aug-21 06:20N 41°29' W 071°21'45 5.6
2016-Aug-20 22:18N 41°11' W 072°16'  
Track history (hours):
 
Tides and Currents Weather Stations Pressure Air Temp Water Temp Dewpoint Dewpoint Depression Visibility Wind Speed Wind Dir Waves Ship Positions

Quenames

Owner: BOSTON MARINE TRANSPORT INC, EAST BOSTON, MA. More information available from US FCC via Universal Licensing System and Coast Guard Vessel Documentation Center.

Last reported at 2016-Aug-30 17:28 UTC. Time now 2016-Aug-30 22:36 UTC.
Position N 40°37' W 074°12'.

Length 23 m; draft 3 m.

Type: Tug. MMSI: 367022790.

Date/timePositionNaut miles runAvg speedWind from/ knotsBaromVisibWave heightAir tempDewpointWater temp
2016-Aug-30 17:28N 40°37' W 074°12'5 5.3
2016-Aug-30 16:33N 40°39' W 074°06'4 4.3
2016-Aug-30 15:33N 40°36' W 074°02'6 5.8
2016-Aug-30 14:29N 40°34' W 073°54'7 0.5
2016-Aug-30 00:31N 40°37' W 073°46'5 4.9
2016-Aug-29 23:29N 40°35' W 073°52'6 5.9
2016-Aug-29 22:27N 40°34' W 074°00'5 5.1
2016-Aug-29 21:33N 40°38' W 074°03'6 5.7
2016-Aug-29 20:33N 40°39' W 074°11'7 0.8
2016-Aug-29 12:05N 40°33' W 074°15'0 0.0
2016-Aug-29 11:33N 40°33' W 074°15'0 0.0
2016-Aug-29 10:25N 40°33' W 074°15'0 0.0
2016-Aug-29 09:18N 40°33' W 074°15'0 0.0
2016-Aug-29 08:28N 40°33' W 074°15'0 0.0
2016-Aug-29 07:33N 40°33' W 074°15'5 4.3
2016-Aug-29 06:25N 40°37' W 074°12'7 7.6
2016-Aug-29 05:33N 40°39' W 074°04'30 1.5
2016-Aug-28 09:33N 40°56' W 073°32'7 5.1
2016-Aug-28 08:13N 40°54' W 073°41'6 5.3
2016-Aug-28 07:08N 40°50' W 073°46'3 4.7
2016-Aug-28 06:33N 40°48' W 073°49'6 5.6
2016-Aug-28 05:31N 40°47' W 073°56'5 5.2
2016-Aug-28 04:33N 40°42' W 073°60'3 3.5
2016-Aug-28 03:33N 40°40' W 074°03'3 3.4
2016-Aug-28 02:33N 40°39' W 074°07'2 0.1
2016-Aug-27 11:33N 40°39' W 074°10'3 3.4
2016-Aug-27 10:33N 40°39' W 074°05'0 0.0
2016-Aug-27 09:33N 40°39' W 074°05'0 0.0
2016-Aug-27 08:33N 40°39' W 074°05'0 0.0
2016-Aug-27 07:33N 40°39' W 074°05'0 0.0
2016-Aug-27 06:33N 40°39' W 074°05'0 0.0
2016-Aug-27 04:33N 40°39' W 074°05'0 0.0
2016-Aug-27 03:33N 40°39' W 074°05'0 0.0
2016-Aug-27 02:33N 40°39' W 074°05'0 0.0
2016-Aug-27 01:33N 40°39' W 074°05'0 0.0
2016-Aug-27 00:33N 40°39' W 074°05'0 0.0
2016-Aug-26 23:33N 40°39' W 074°05'0 0.0
2016-Aug-26 22:33N 40°39' W 074°05'0 0.0
2016-Aug-26 21:33N 40°39' W 074°05'0 0.0
2016-Aug-26 20:33N 40°39' W 074°05'0 0.0
2016-Aug-26 19:33N 40°39' W 074°05'0 0.1
2016-Aug-26 18:33N 40°39' W 074°05'2 2.5
2016-Aug-26 17:33N 40°39' W 074°08'3 2.7
2016-Aug-26 16:33N 40°38' W 074°12'2 1.7
2016-Aug-26 15:30N 40°39' W 074°09'3 3.6
2016-Aug-26 14:33N 40°39' W 074°05'3 3.0
2016-Aug-26 13:33N 40°39' W 074°09'3 0.2
2016-Aug-25 21:32N 40°38' W 074°12'6 5.9
2016-Aug-25 20:33N 40°39' W 074°05'7 6.6
2016-Aug-25 19:33N 40°44' W 073°58'7 4.6
2016-Aug-25 18:06N 40°48' W 073°52'6 0.2
2016-Aug-24 14:33N 40°44' W 073°58'7 6.9
2016-Aug-24 13:33N 40°39' W 074°05'5 0.4
2016-Aug-24 00:33N 40°38' W 074°12'4 4.1
2016-Aug-23 23:33N 40°39' W 074°06'3 1.1
2016-Aug-23 21:11N 40°39' W 074°10'1 0.4
2016-Aug-23 18:29N 40°38' W 074°11'4 4.1
2016-Aug-23 17:33N 40°39' W 074°06'0 0.0
2016-Aug-23 16:33N 40°39' W 074°06'0 0.0
2016-Aug-23 15:33N 40°39' W 074°06'0 0.0
2016-Aug-23 14:33N 40°39' W 074°06'0 0.0
2016-Aug-23 13:33N 40°39' W 074°06'0 0.0
2016-Aug-23 12:33N 40°39' W 074°06'0 0.0
2016-Aug-23 11:33N 40°39' W 074°06'2 2.2
2016-Aug-23 10:33N 40°41' W 074°08'1 1.0
2016-Aug-23 09:33N 40°41' W 074°09'0 0.0
2016-Aug-23 08:33N 40°41' W 074°09'0 0.0
2016-Aug-23 07:33N 40°41' W 074°09'0 0.0
2016-Aug-23 06:33N 40°41' W 074°09'0 0.0
2016-Aug-23 05:33N 40°41' W 074°09'0 0.0
2016-Aug-23 04:33N 40°41' W 074°09'0 0.0
2016-Aug-23 03:33N 40°41' W 074°09'0 0.0
2016-Aug-23 02:33N 40°41' W 074°09'4 0.2
2016-Aug-22 08:30N 40°37' W 074°12'6 6.5
2016-Aug-22 07:33N 40°39' W 074°05'6 6.0
2016-Aug-22 06:33N 40°43' W 073°58'128 5.5
2016-Aug-21 07:30N 41°29' W 071°21'0 0.1
2016-Aug-21 06:20N 41°29' W 071°21'45 5.6
2016-Aug-20 22:18N 41°11' W 072°16'  

Dump ship's entire track history